Rushville, IL

12:28 AM CDT on August 04, 2015 (GMT -0500)
APRSWXNET | | Change Station
CLOSE
Current Station
Personal Weather Station
Location: Bader, IL
Elevation: 649 ft
Nearby Weather Stations
Active Advisory: Flood Warning

Elev 649 ft 40.14 °N, 90.42 °W | Updated 19 minutes ago

Clear
Clear
66 °F
Feels Like 66 °F
N
0
Wind Variable Wind from NE
Gusts 0.0 mph

Today
High -- | Low -- °F
--% Chance of Precip.
Yesterday
High -- | Low -- °F
Precip. -- in
6:02 AM 8:13 PM
Waning Gibbous, 81% visible
Pressure 29.99 in
Visibility 10.0 miles
Clouds Clear
Dew Point 65 °F
Humidity 96%
Rainfall in
Snow Depth Not available.
UV 0 out of 12
Pollen 7.00 out of 12
Air Quality Not available.
Flu Activity Not available.
METAR KMQB 040515Z AUTO 00000KT 10SM CLR 17/16 A2999 RMK AO2 T01650155

More Conditions Fewer Conditions

Pressure 29.99 in
Visibility 10.0 miles
Clouds Clear
Dew Point 65 °F
Humidity 96%
Rainfall in
Snow Depth Not available.
UV 0 out of 12
Pollen 7.00 out of 12
Air Quality Not available.
Flu Activity Not available.
METAR KMQB 040515Z AUTO 00000KT 10SM CLR 17/16 A2999 RMK AO2 T01650155

More Conditions Fewer Conditions

10-Day Weather Forecast

×

Almanac

Astronomy

Aug. 04, 2015 Rise Set
Actual Time
Civil Twilight
Nautical Twilight
Astronomical Twilight
Moon
Length of Visible Light
Length of Day
Tomorrow will be .
, % of the Moon is Illuminated

Today's Extremes

State Highs State Lows

Community

WunderPhotos

Upload Photos

1,843,868 photos uploaded!

WunderBlogs® & News

Nearby

Air Quality

  Air Quality AQ Index Pollutant
Not available.

Snow Depth

Station Depth Elevation

Earthquake Activity

City Distance Mag. Time & Date
Minimum magnitude displayed is 2.5.

Coastal Water Temperatures

Place Temperature

Stations

Nearby Weather Stations

Station Location Temp. Windchill Dew Point Humidity Wind Precip. Elev Updated Type
                   
Flood Warning
Statement as of 9:11 PM CDT on August 03, 2015

The Flood Warning continues for
the Illinois River at Beardstown.
* Until further notice.
* At 845 PM Monday the stage was 18.2 feet.
* Flood stage is 14.0 feet.
* Moderate flooding is occurring and moderate flooding is forecast.
* Forecast... the river will continue to fall to a stage of 17.1 feet
by Wednesday morning.
* Impact... at 18.0 feet... seepage problems begin in the Lost Creek
drainage and levee district.



                  Fld observed forecast 6am
location stg stg day time Tue Wed Thu

Illinois River
Beardstown 14 18.2 Mon 9 PM 17.8 17.1 16.5



Lat... Lon 4018 9023 4012 9017 4008 9037 3999 9046
      3999 9058 4015 9043